Time;durP1;ratioP1;P1;durP2;ratioP2;P2;SDS_P1;SDS_P2;PMS_P1;PMS_P2;Temp;Humidity;BMP_temperature;BMP_pressure;BME280_temperature;BME280_humidity;BME280_pressure;Samples;Min_cycle;Max_cycle;Signal;HPM_P1;HPM_P2
2022/05/08 00:00:05;;;;;;;7.30;2.60;;;14.20;1.00;;;;;;5134700;27;20464;-55
2022/05/08 00:02:32;;;;;;;5.17;3.00;;;14.20;1.00;;;;;;5139280;27;20503;-54
2022/05/08 00:04:58;;;;;;;5.13;3.23;;;14.20;1.00;;;;;;5135451;27;20457;-56
2022/05/08 00:07:25;;;;;;;3.77;3.30;;;14.30;1.00;;;;;;5132587;27;20465;-55
2022/05/08 00:09:52;;;;;;;3.17;2.87;;;14.30;1.00;;;;;;5137251;27;20502;-54
2022/05/08 00:12:19;;;;;;;3.20;2.90;;;14.30;1.00;;;;;;5134213;27;20459;-56
2022/05/08 00:14:46;;;;;;;7.70;3.97;;;14.30;37.50;;;;;;5133333;27;20473;-54
2022/05/08 00:17:15;;;;;;;5.43;2.80;;;14.20;99.90;;;;;;5137001;27;20772;-56
2022/05/08 00:19:43;;;;;;;2.50;2.30;;;14.20;99.90;;;;;;5137798;27;20459;-56
2022/05/08 00:22:10;;;;;;;2.67;2.33;;;14.20;99.90;;;;;;5137716;27;20938;-53
2022/05/08 00:24:36;;;;;;;3.00;2.60;;;14.20;99.90;;;;;;5133435;27;20455;-52
2022/05/08 00:27:04;;;;;;;3.10;2.90;;;14.20;99.90;;;;;;5138736;27;20827;-52
2022/05/08 00:29:31;;;;;;;3.30;3.10;;;14.10;1.00;;;;;;5135938;27;20472;-52
2022/05/08 00:31:57;;;;;;;3.13;2.60;;;14.00;99.90;;;;;;5132802;27;20455;-55
2022/05/08 00:34:26;;;;;;;3.30;2.80;;;14.00;1.00;;;;;;5134029;27;20777;-55
2022/05/08 00:36:53;;;;;;;3.50;3.03;;;13.90;1.00;;;;;;5131389;27;20886;-53
2022/05/08 00:39:20;;;;;;;4.13;3.23;;;13.90;1.00;;;;;;5130009;27;20471;-55
2022/05/08 00:41:47;;;;;;;2.67;1.93;;;13.80;1.00;;;;;;5137110;27;20444;-54
2022/05/08 00:44:14;;;;;;;3.57;2.87;;;13.80;1.00;;;;;;5134374;27;20894;-55
2022/05/08 00:46:41;;;;;;;3.60;2.40;;;13.70;1.00;;;;;;5127609;27;20454;-53
2022/05/08 00:49:08;;;;;;;3.77;3.17;;;13.70;1.00;;;;;;5135783;27;20470;-54
2022/05/08 00:51:37;;;;;;;3.60;2.47;;;13.60;99.90;;;;;;5131743;27;20463;-53
2022/05/08 00:54:04;;;;;;;3.57;3.30;;;13.60;1.00;;;;;;5138299;27;20546;-53
2022/05/08 00:56:32;;;;;;;3.37;2.67;;;13.60;99.90;;;;;;5128947;27;20490;-55
2022/05/08 00:59:17;;;;;;;3.60;2.67;;;13.60;1.00;;;;;;5136942;27;20919;-53
2022/05/08 01:01:44;;;;;;;4.30;3.90;;;13.60;1.00;;;;;;5135563;27;20459;-55
2022/05/08 01:04:10;;;;;;;3.23;2.87;;;13.60;99.90;;;;;;5137004;27;20458;-53
2022/05/08 01:06:39;;;;;;;3.70;3.40;;;13.60;99.90;;;;;;5135889;27;20463;-56
2022/05/08 01:09:05;;;;;;;3.63;2.97;;;13.60;1.00;;;;;;5136262;27;20461;-56
2022/05/08 01:11:33;;;;;;;2.30;1.73;;;13.60;1.00;;;;;;5134693;27;20756;-51
2022/05/08 01:13:59;;;;;;;3.70;2.13;;;13.60;1.00;;;;;;5134846;27;20447;-51
2022/05/08 01:16:26;;;;;;;3.77;3.30;;;13.70;1.00;;;;;;5134099;27;20457;-57
2022/05/08 01:18:53;;;;;;;3.80;3.50;;;13.70;99.90;;;;;;5137133;27;20452;-56
2022/05/08 01:21:24;;;;;;;4.30;3.30;;;13.60;1.00;;;;;;5137293;27;20454;-55
2022/05/08 01:23:52;;;;;;;4.40;3.57;;;13.70;1.00;;;;;;5135476;27;20507;-55
2022/05/08 01:26:22;;;;;;;4.10;3.80;;;13.80;1.00;;;;;;5130107;27;21101;-55
2022/05/08 01:28:49;;;;;;;4.60;3.60;;;13.80;99.90;;;;;;5130928;27;20474;-56
2022/05/08 01:31:16;;;;;;;4.37;3.43;;;13.60;1.00;;;;;;5133179;27;20949;-56
2022/05/08 01:33:43;;;;;;;5.70;3.10;;;13.50;99.90;;;;;;5127937;27;20455;-54
2022/05/08 01:36:10;;;;;;;3.17;2.93;;;13.30;1.00;;;;;;5131099;27;20456;-53
2022/05/08 01:38:37;;;;;;;3.70;3.30;;;13.20;1.00;;;;;;5136089;27;20464;-55
2022/05/08 01:41:05;;;;;;;3.60;3.30;;;13.10;99.90;;;;;;5134651;27;20542;-55
2022/05/08 01:43:34;;;;;;;4.80;4.13;;;13.10;99.90;;;;;;5136450;27;20487;-55
2022/05/08 01:46:01;;;;;;;4.30;3.90;;;13.10;99.90;;;;;;5132568;27;20460;-54
2022/05/08 01:48:27;;;;;;;4.03;3.17;;;13.10;99.90;;;;;;5131469;27;20465;-54
2022/05/08 01:50:57;;;;;;;6.13;3.50;;;13.10;1.00;;;;;;5131118;27;20538;-55
2022/05/08 01:53:25;;;;;;;3.30;2.70;;;12.90;1.00;;;;;;5132784;27;20460;-54
2022/05/08 01:55:54;;;;;;;4.73;2.97;;;12.70;1.00;;;;;;5135133;27;20460;-54
2022/05/08 01:58:23;;;;;;;4.23;3.83;;;12.70;1.00;;;;;;5136534;27;20473;-55
2022/05/08 02:00:50;;;;;;;5.57;3.67;;;12.70;1.00;;;;;;5128407;27;20937;-55
2022/05/08 02:03:18;;;;;;;3.67;3.37;;;12.70;1.00;;;;;;5129265;27;20497;-55
2022/05/08 02:05:45;;;;;;;3.60;3.10;;;12.80;1.00;;;;;;5132006;27;20452;-57
2022/05/08 02:08:13;;;;;;;4.57;3.70;;;12.90;1.00;;;;;;5123701;27;20466;-56
2022/05/08 02:10:40;;;;;;;5.97;3.40;;;13.00;1.00;;;;;;5132453;27;20466;-55
2022/05/08 02:13:08;;;;;;;9.17;5.70;;;13.10;1.00;;;;;;5133338;27;20779;-55
2022/05/08 02:15:37;;;;;;;3.93;3.60;;;13.20;99.90;;;;;;5135626;27;20456;-50
2022/05/08 02:18:05;;;;;;;4.67;3.70;;;13.20;1.00;;;;;;5134995;27;20766;-55
2022/05/08 02:20:40;;;;;;;3.10;2.40;;;13.00;1.00;;;;;;5132820;27;20570;-51
2022/05/08 02:23:07;;;;;;;3.90;3.50;;;13.00;1.00;;;;;;5126855;27;20574;-51
2022/05/08 02:25:34;;;;;;;4.23;3.57;;;12.90;1.00;;;;;;5130944;27;20459;-54
2022/05/08 02:28:01;;;;;;;7.17;2.97;;;12.80;1.00;;;;;;5132246;27;20462;-56
2022/05/08 02:30:28;;;;;;;4.50;4.10;;;12.70;1.00;;;;;;5134568;27;20478;-55
2022/05/08 02:32:57;;;;;;;3.60;3.30;;;12.70;1.00;;;;;;5133478;27;20906;-55
2022/05/08 02:35:24;;;;;;;4.53;3.97;;;12.70;1.00;;;;;;5134345;27;20494;-56
2022/05/08 02:37:53;;;;;;;3.40;3.10;;;12.60;1.00;;;;;;5130931;27;20455;-51
2022/05/08 02:40:22;;;;;;;4.73;3.60;;;12.70;1.00;;;;;;5131252;27;20512;-55
2022/05/08 02:42:49;;;;;;;4.63;3.90;;;12.70;1.00;;;;;;5131811;27;20946;-56
2022/05/08 02:45:16;;;;;;;4.90;3.23;;;12.80;1.00;;;;;;5124223;27;20495;-56
2022/05/08 02:47:42;;;;;;;3.80;3.00;;;12.80;1.00;;;;;;5131791;27;20470;-56
2022/05/08 02:50:11;;;;;;;4.00;3.27;;;12.80;1.00;;;;;;5133749;27;20463;-53
2022/05/08 02:52:39;;;;;;;3.70;3.10;;;12.80;1.00;;;;;;5136627;27;20447;-55
2022/05/08 03:00:37;;;;;;;5.77;3.43;;;12.90;1.00;;;;;;5108766;28;20467;-53
2022/05/08 03:03:05;;;;;;;4.20;3.80;;;12.90;1.00;;;;;;5107217;28;20480;-56
2022/05/08 03:05:34;;;;;;;4.30;3.90;;;12.90;1.00;;;;;;5114299;28;20468;-55
2022/05/08 03:08:01;;;;;;;4.03;3.63;;;12.90;1.00;;;;;;5105537;28;20464;-50
2022/05/08 03:10:28;;;;;;;5.17;3.43;;;12.90;1.00;;;;;;5112924;28;20461;-55
2022/05/08 03:12:55;;;;;;;4.93;4.53;;;12.90;1.00;;;;;;5111417;28;20476;-53
2022/05/08 03:15:23;;;;;;;5.33;4.70;;;13.00;1.00;;;;;;5112805;28;20460;-51
2022/05/08 03:17:50;;;;;;;5.27;3.97;;;12.90;1.00;;;;;;5107954;28;20460;-54
2022/05/08 03:20:17;;;;;;;6.13;3.50;;;13.00;1.00;;;;;;5113207;28;20468;-54
2022/05/08 03:22:57;;;;;;;2.90;2.70;;;13.00;1.00;;;;;;5114442;28;20850;-54
2022/05/08 03:25:24;;;;;;;4.30;3.77;;;13.00;99.90;;;;;;5111612;28;20464;-52
2022/05/08 03:27:53;;;;;;;3.40;3.10;;;13.00;99.90;;;;;;5118984;28;20456;-55
2022/05/08 03:30:20;;;;;;;4.53;2.73;;;12.90;1.00;;;;;;5120161;28;20480;-56
2022/05/08 03:32:47;;;;;;;5.70;4.10;;;12.90;1.00;;;;;;5121932;28;20452;-56
2022/05/08 03:35:14;;;;;;;4.30;3.30;;;12.90;1.00;;;;;;5118560;28;20772;-54
2022/05/08 03:37:41;;;;;;;5.93;4.57;;;12.90;1.00;;;;;;5118291;28;20461;-55
2022/05/08 03:40:10;;;;;;;4.70;3.70;;;12.90;1.00;;;;;;5117889;28;20453;-54
2022/05/08 03:42:37;;;;;;;5.00;3.77;;;12.80;1.00;;;;;;5121617;28;21195;-53
2022/05/08 03:45:04;;;;;;;5.63;4.00;;;12.80;1.00;;;;;;5114976;28;20475;-56
2022/05/08 03:47:31;;;;;;;5.20;4.10;;;12.80;1.00;;;;;;5120412;28;20947;-56
2022/05/08 03:49:58;;;;;;;4.83;4.30;;;12.70;1.00;;;;;;5120442;28;20460;-56
2022/05/08 03:52:25;;;;;;;4.87;4.43;;;12.60;1.00;;;;;;5121704;28;20463;-55
2022/05/08 03:54:52;;;;;;;3.83;3.50;;;12.60;1.00;;;;;;5113646;28;20457;-50
2022/05/08 03:57:20;;;;;;;3.87;3.47;;;12.50;1.00;;;;;;5133624;27;20790;-55
2022/05/08 03:59:46;;;;;;;3.97;3.67;;;12.40;1.00;;;;;;5139652;27;20464;-54
2022/05/08 04:02:13;;;;;;;5.00;4.40;;;12.40;1.00;;;;;;5138682;27;20853;-53
2022/05/08 04:04:52;;;;;;;4.03;2.67;;;12.40;1.00;;;;;;5137022;27;20485;-51
2022/05/08 04:07:19;;;;;;;5.43;4.10;;;12.40;1.00;;;;;;5140801;27;20475;-54
2022/05/08 04:09:46;;;;;;;4.00;3.60;;;12.40;1.00;;;;;;5141712;27;20918;-51
2022/05/08 04:12:13;;;;;;;5.97;4.33;;;12.40;1.00;;;;;;5138837;27;20459;-54
2022/05/08 04:14:41;;;;;;;5.67;4.50;;;12.40;1.00;;;;;;5139507;27;20543;-55
2022/05/08 04:17:07;;;;;;;4.60;3.60;;;12.40;1.00;;;;;;5142433;27;20470;-55
2022/05/08 04:19:33;;;;;;;5.70;4.20;;;12.50;1.00;;;;;;5139823;27;20541;-54
2022/05/08 04:24:42;;;;;;;6.33;4.70;;;12.40;1.00;;;;;;5132239;27;20555;-56
2022/05/08 04:27:09;;;;;;;4.73;3.47;;;12.40;1.00;;;;;;5139065;27;20470;-55
2022/05/08 04:29:35;;;;;;;5.80;4.00;;;12.40;1.00;;;;;;5141754;27;20459;-53
2022/05/08 04:32:04;;;;;;;5.30;4.47;;;12.40;1.00;;;;;;5140481;27;20537;-55
2022/05/08 04:34:31;;;;;;;5.13;4.50;;;12.40;1.00;;;;;;5141549;27;20524;-54
2022/05/08 04:37:04;;;;;;;5.17;4.27;;;12.40;1.00;;;;;;5140184;27;20901;-55
2022/05/08 04:39:31;;;;;;;5.20;3.47;;;12.40;1.00;;;;;;5133512;27;20550;-54
2022/05/08 04:41:59;;;;;;;4.60;3.90;;;12.40;1.00;;;;;;5136662;27;20462;-53
2022/05/08 04:44:26;;;;;;;5.97;3.60;;;12.40;1.00;;;;;;5135214;27;20475;-52
2022/05/08 04:46:52;;;;;;;5.67;4.17;;;12.40;1.00;;;;;;5135148;27;20464;-51
2022/05/08 04:49:21;;;;;;;3.90;3.17;;;12.40;1.00;;;;;;5136975;27;20777;-54
2022/05/08 04:51:48;;;;;;;5.17;4.07;;;12.40;1.00;;;;;;5138427;27;20468;-56
2022/05/08 04:54:15;;;;;;;4.23;3.83;;;12.40;1.00;;;;;;5134814;27;20474;-53
2022/05/08 04:56:42;;;;;;;5.87;3.87;;;12.40;1.00;;;;;;5128832;27;20502;-54
2022/05/08 04:59:09;;;;;;;3.50;2.90;;;12.50;1.00;;;;;;5139639;27;20797;-55
2022/05/08 05:01:36;;;;;;;9.53;4.40;;;12.60;1.00;;;;;;5136505;27;20471;-54
2022/05/08 05:04:03;;;;;;;5.43;4.93;;;12.60;1.00;;;;;;5138551;27;20479;-55
2022/05/08 05:06:31;;;;;;;4.53;3.73;;;12.60;1.00;;;;;;5136712;27;20760;-53
2022/05/08 05:08:58;;;;;;;6.33;4.80;;;12.60;1.00;;;;;;5134593;27;20547;-52
2022/05/08 05:11:25;;;;;;;5.70;5.10;;;12.60;1.00;;;;;;5137247;27;20566;-55
2022/05/08 05:13:52;;;;;;;6.03;5.27;;;12.60;1.00;;;;;;5134821;27;20452;-54
2022/05/08 05:16:19;;;;;;;5.70;5.03;;;12.40;1.00;;;;;;5138148;27;20470;-54
2022/05/08 05:19:07;;;;;;;9.73;6.97;;;12.40;1.00;;;;;;5136813;27;20460;-56
2022/05/08 05:21:35;;;;;;;5.87;5.30;;;12.30;1.00;;;;;;5134648;27;20466;-55
2022/05/08 05:24:02;;;;;;;5.23;4.67;;;12.30;1.00;;;;;;5132809;27;20598;-55
2022/05/08 05:26:29;;;;;;;8.80;5.53;;;12.40;1.00;;;;;;5136917;27;20463;-54
2022/05/08 05:28:56;;;;;;;7.07;5.20;;;12.40;1.00;;;;;;5136122;27;20451;-55
2022/05/08 05:31:22;;;;;;;5.93;5.33;;;12.40;1.00;;;;;;5137250;27;20735;-56
2022/05/08 05:33:49;;;;;;;6.77;5.43;;;12.40;1.00;;;;;;5135364;27;20456;-55
2022/05/08 05:36:16;;;;;;;5.13;4.47;;;12.50;1.00;;;;;;5137626;27;20462;-54
2022/05/08 05:38:44;;;;;;;8.70;6.07;;;12.60;1.00;;;;;;5131458;27;20983;-52
2022/05/08 05:41:11;;;;;;;5.37;4.83;;;12.60;1.00;;;;;;5133110;27;20456;-56
2022/05/08 05:43:38;;;;;;;4.73;4.10;;;12.50;1.00;;;;;;5133935;27;20502;-53
2022/05/08 05:48:49;;;;;;;6.50;5.50;;;12.50;1.00;;;;;;5135165;27;20439;-55
2022/05/08 05:51:16;;;;;;;7.60;6.57;;;12.60;1.00;;;;;;5136197;27;20936;-54
2022/05/08 05:53:44;;;;;;;7.67;6.60;;;12.50;1.00;;;;;;5138717;27;20535;-56
2022/05/08 05:56:11;;;;;;;8.67;6.20;;;12.50;1.00;;;;;;5135632;27;20965;-55
2022/05/08 05:58:38;;;;;;;5.73;5.17;;;12.50;1.00;;;;;;5135570;27;20493;-49
2022/05/08 06:01:10;;;;;;;6.77;5.53;;;12.60;1.00;;;;;;5132713;27;20451;-56
2022/05/08 06:03:38;;;;;;;8.83;6.20;;;12.70;1.00;;;;;;5134477;27;20463;-55
2022/05/08 06:06:05;;;;;;;7.50;5.80;;;12.80;1.00;;;;;;5127181;27;20467;-56
2022/05/08 06:08:32;;;;;;;8.17;6.17;;;12.90;1.00;;;;;;5126912;27;20901;-56
2022/05/08 06:11:00;;;;;;;7.20;6.47;;;13.10;1.00;;;;;;5135133;27;20483;-55
2022/05/08 06:13:31;;;;;;;8.00;6.60;;;13.10;1.00;;;;;;5131176;27;20819;-55
2022/05/08 06:15:58;;;;;;;6.10;5.23;;;13.00;1.00;;;;;;5133491;27;20835;-56
2022/05/08 06:18:30;;;;;;;8.67;6.70;;;12.90;1.00;;;;;;5133950;27;20739;-56
2022/05/08 06:20:57;;;;;;;6.67;6.07;;;12.80;1.00;;;;;;5135595;27;20494;-55
2022/05/08 06:23:25;;;;;;;5.93;4.70;;;12.80;1.00;;;;;;5135428;27;20460;-54
2022/05/08 06:25:52;;;;;;;8.83;7.00;;;12.90;1.00;;;;;;5133836;27;20468;-55
2022/05/08 06:28:20;;;;;;;10.23;7.67;;;12.80;1.00;;;;;;5134457;27;20460;-56
2022/05/08 06:30:47;;;;;;;9.23;7.17;;;12.80;1.00;;;;;;5135700;27;20471;-57
2022/05/08 06:33:14;;;;;;;7.50;6.63;;;12.80;1.00;;;;;;5132074;27;20480;-55
2022/05/08 06:35:41;;;;;;;11.17;7.23;;;12.80;1.00;;;;;;5135142;27;20794;-53
2022/05/08 06:38:10;;;;;;;8.43;7.50;;;12.70;1.00;;;;;;5131434;27;20456;-55
2022/05/08 06:40:37;;;;;;;9.80;7.40;;;12.60;1.00;;;;;;5134989;27;20899;-52
2022/05/08 06:43:04;;;;;;;8.57;7.23;;;12.70;1.00;;;;;;5130381;27;20458;-56
2022/05/08 06:45:32;;;;;;;8.93;7.57;;;12.80;1.00;;;;;;5131697;27;20827;-53
2022/05/08 06:47:59;;;;;;;9.60;7.30;;;12.80;1.00;;;;;;5136215;27;20542;-51
2022/05/08 06:50:26;;;;;;;9.13;7.20;;;12.70;1.00;;;;;;5134228;27;20894;-55
2022/05/08 06:52:53;;;;;;;7.50;6.40;;;12.80;1.00;;;;;;5135350;27;20498;-55
2022/05/08 06:55:20;;;;;;;4.60;4.20;;;13.00;1.00;;;;;;5130946;27;20454;-56
2022/05/08 06:57:47;;;;;;;6.13;5.43;;;13.40;1.00;;;;;;5120876;27;20777;-55
2022/05/08 07:03:03;;;;;;;8.43;7.20;;;13.90;1.00;;;;;;5118578;27;20523;-56
2022/05/08 07:05:30;;;;;;;9.30;6.03;;;14.00;99.90;;;;;;5127389;27;21088;-56
2022/05/08 07:07:57;;;;;;;9.73;8.83;;;13.90;1.00;;;;;;5123735;27;20449;-56
2022/05/08 07:10:24;;;;;;;8.80;6.70;;;13.80;1.00;;;;;;5115671;27;20461;-55
2022/05/08 07:12:50;;;;;;;7.40;6.50;;;13.60;1.00;;;;;;5130652;27;20538;-55
2022/05/08 07:15:17;;;;;;;9.50;7.00;;;13.40;1.00;;;;;;5115593;27;20455;-57
2022/05/08 07:17:44;;;;;;;10.20;8.00;;;13.40;1.00;;;;;;5117799;27;20870;-56
2022/05/08 07:20:12;;;;;;;9.00;6.60;;;13.60;1.00;;;;;;5114953;27;20969;-56
2022/05/08 07:22:39;;;;;;;7.70;7.00;;;13.70;1.00;;;;;;5110640;28;20460;-55
2022/05/08 07:25:07;;;;;;;8.70;7.80;;;14.00;1.00;;;;;;5116302;28;20926;-56
2022/05/08 07:27:36;;;;;;;8.77;6.90;;;14.10;1.00;;;;;;5112191;28;20461;-53
2022/05/08 07:30:04;;;;;;;8.03;7.23;;;14.20;1.00;;;;;;5114421;28;20456;-58
2022/05/08 07:32:31;;;;;;;8.60;6.27;;;14.20;99.90;;;;;;5135072;28;20447;-53
2022/05/08 07:37:49;;;;;;;10.03;7.30;;;14.00;1.00;;;;;;5047722;28;20435;-58
2022/05/08 07:40:16;;;;;;;12.23;8.70;;;14.20;1.00;;;;;;5117214;28;21495;-54
2022/05/08 07:42:43;;;;;;;6.43;5.30;;;14.30;1.00;;;;;;5117851;28;20452;-56
2022/05/08 07:45:10;;;;;;;6.23;5.50;;;14.40;99.90;;;;;;5113955;28;20491;-52
2022/05/08 07:47:37;;;;;;;7.63;6.90;;;14.60;80.90;;;;;;5113333;28;20787;-57
2022/05/08 07:50:05;;;;;;;10.50;8.13;;;14.90;99.90;;;;;;5119481;28;20544;-56
2022/05/08 07:52:32;;;;;;;8.73;7.67;;;14.90;1.00;;;;;;5113317;28;20514;-54
2022/05/08 07:55:00;;;;;;;9.47;6.63;;;15.00;33.80;;;;;;5120638;28;20478;-53
2022/05/08 07:57:27;;;;;;;10.13;7.80;;;14.90;99.90;;;;;;5112007;28;20494;-54
2022/05/08 07:59:53;;;;;;;7.40;6.70;;;14.90;1.00;;;;;;5110561;28;20467;-55
2022/05/08 08:02:20;;;;;;;10.57;6.90;;;15.00;1.00;;;;;;5111071;28;20569;-54
2022/05/08 08:04:47;;;;;;;9.40;6.50;;;15.10;1.00;;;;;;5114337;28;21014;-54
2022/05/08 08:07:14;;;;;;;7.60;6.33;;;15.20;1.00;;;;;;5105960;28;20471;-54
2022/05/08 08:09:41;;;;;;;7.47;6.47;;;15.30;1.00;;;;;;5111539;28;20460;-55
2022/05/08 08:12:09;;;;;;;8.90;7.30;;;15.60;99.90;;;;;;5113284;28;20465;-55
2022/05/08 08:14:36;;;;;;;6.73;6.10;;;15.80;99.90;;;;;;5115046;28;20767;-54
2022/05/08 08:17:03;;;;;;;9.73;5.13;;;15.90;99.80;;;;;;5112881;28;20478;-57
2022/05/08 08:19:31;;;;;;;7.40;6.30;;;16.10;1.00;;;;;;5111683;28;20456;-56
2022/05/08 08:21:59;;;;;;;7.17;5.27;;;16.20;99.90;;;;;;5112015;28;20459;-56
2022/05/08 08:24:27;;;;;;;5.93;5.17;;;16.30;99.90;;;;;;5111490;28;20476;-55
2022/05/08 08:26:53;;;;;;;4.97;3.93;;;16.30;99.90;;;;;;5113040;28;20621;-54
2022/05/08 08:29:21;;;;;;;4.70;4.10;;;16.50;99.90;;;;;;5111059;28;20468;-57
2022/05/08 08:31:48;;;;;;;5.73;4.67;;;16.80;1.00;;;;;;5113283;28;20456;-56
2022/05/08 08:34:15;;;;;;;5.80;5.20;;;16.90;1.00;;;;;;5110961;28;20449;-56
2022/05/08 08:36:42;;;;;;;5.53;5.00;;;17.20;99.90;;;;;;5114838;28;20461;-55
2022/05/08 08:39:09;;;;;;;4.10;2.80;;;17.20;99.90;;;;;;5109748;28;20452;-57
2022/05/08 08:41:36;;;;;;;4.00;3.00;;;17.00;99.90;;;;;;5112954;28;20452;-56
2022/05/08 08:49:43;;;;;;;4.57;3.90;;;17.40;99.90;;;;;;5111600;28;20443;-56
2022/05/08 08:52:12;;;;;;;3.07;2.67;;;17.60;99.90;;;;;;5116322;28;20686;-55
2022/05/08 08:54:39;;;;;;;4.73;4.17;;;17.80;99.90;;;;;;5114739;28;20907;-55
2022/05/08 08:57:06;;;;;;;3.30;2.70;;;17.60;99.90;;;;;;5115931;27;20657;-57
2022/05/08 08:59:33;;;;;;;4.00;3.57;;;17.50;99.90;;;;;;5112589;27;21439;-56
2022/05/08 09:02:01;;;;;;;3.50;2.60;;;17.80;99.90;;;;;;5114460;28;20463;-57
2022/05/08 09:04:28;;;;;;;3.70;3.37;;;17.70;99.90;;;;;;5116307;27;20587;-56
2022/05/08 09:06:55;;;;;;;3.20;2.90;;;18.00;99.90;;;;;;5107239;28;20475;-55
2022/05/08 09:09:24;;;;;;;4.80;3.20;;;18.30;23.10;;;;;;5107250;28;20465;-55
2022/05/08 09:11:51;;;;;;;5.23;4.63;;;18.60;1.00;;;;;;5105218;28;20488;-56
2022/05/08 09:14:28;;;;;;;4.70;3.03;;;18.90;1.00;;;;;;5107270;28;20464;-57
2022/05/08 09:16:56;;;;;;;4.40;3.83;;;18.60;1.00;;;;;;5113213;28;20460;-55
2022/05/08 09:19:37;;;;;;;3.83;2.87;;;18.50;1.00;;;;;;5102461;28;20470;-56
2022/05/08 09:22:05;;;;;;;3.83;2.60;;;18.60;1.00;;;;;;5101292;27;20475;-56
2022/05/08 09:24:32;;;;;;;4.30;2.40;;;19.00;1.00;;;;;;5107914;28;20452;-56
2022/05/08 09:27:13;;;;;;;4.87;3.70;;;19.20;1.00;;;;;;5109607;27;20487;-58
2022/05/08 09:29:40;;;;;;;3.33;2.53;;;19.10;1.00;;;;;;5111593;27;20492;-53
2022/05/08 09:32:08;;;;;;;4.93;2.60;;;19.30;1.00;;;;;;5109830;27;20857;-55
2022/05/08 09:34:58;;;;;;;4.37;3.30;;;19.20;1.00;;;;;;5113727;28;20460;-56
2022/05/08 09:37:25;;;;;;;4.50;3.00;;;19.10;1.00;;;;;;5108526;28;20471;-54
2022/05/08 09:39:52;;;;;;;2.70;2.50;;;19.30;1.00;;;;;;5104811;28;20453;-56
2022/05/08 09:42:36;;;;;;;3.30;2.70;;;19.30;1.00;;;;;;5115072;28;20433;-57
2022/05/08 09:45:08;;;;;;;3.00;2.03;;;19.60;1.00;;;;;;5109497;28;20512;-54
2022/05/08 09:47:42;;;;;;;3.03;2.20;;;19.60;1.00;;;;;;5107751;27;20457;-55
2022/05/08 09:50:11;;;;;;;3.10;2.50;;;19.70;1.00;;;;;;5108686;28;20506;-53
2022/05/08 09:52:40;;;;;;;4.27;3.87;;;19.70;1.00;;;;;;5113854;28;20453;-59
2022/05/08 09:55:08;;;;;;;3.20;2.63;;;19.90;1.00;;;;;;5112322;28;20901;-56
2022/05/08 09:57:35;;;;;;;3.07;2.67;;;20.10;1.00;;;;;;5125352;27;20898;-57
2022/05/08 10:00:03;;;;;;;4.00;2.80;;;20.20;1.00;;;;;;5129804;27;20456;-55
2022/05/08 10:02:30;;;;;;;3.40;2.73;;;20.20;1.00;;;;;;5131197;27;20455;-57
2022/05/08 10:04:58;;;;;;;4.00;3.07;;;20.30;1.00;;;;;;5129702;27;20479;-57
2022/05/08 10:07:27;;;;;;;4.30;3.20;;;20.50;1.00;;;;;;5127561;27;20482;-57
2022/05/08 10:15:36;;;;;;;2.57;2.37;;;21.00;1.00;;;;;;5127574;27;20438;-56
2022/05/08 10:18:24;;;;;;;2.67;2.23;;;20.90;1.00;;;;;;5128703;27;20771;-55
2022/05/08 10:21:01;;;;;;;7.17;2.60;;;20.60;1.00;;;;;;5122966;27;20453;-55
2022/05/08 10:23:40;;;;;;;2.77;2.47;;;20.80;1.00;;;;;;5126739;27;20459;-57
2022/05/08 10:26:15;;;;;;;3.10;2.80;;;21.10;1.00;;;;;;5122847;27;20471;-54
2022/05/08 10:29:13;;;;;;;3.10;2.80;;;21.20;1.00;;;;;;5134660;27;20451;-53
2022/05/08 10:31:44;;;;;;;3.43;2.60;;;21.30;1.00;;;;;;5129154;27;20465;-56
2022/05/08 10:34:12;;;;;;;2.70;2.10;;;21.50;1.00;;;;;;5121504;27;20851;-54
2022/05/08 10:36:40;;;;;;;3.40;2.87;;;21.50;1.00;;;;;;5126564;27;20458;-54
2022/05/08 10:39:41;;;;;;;3.30;2.33;;;21.40;1.00;;;;;;5127595;27;20451;-55
2022/05/08 10:42:42;;;;;;;3.27;2.27;;;21.40;1.00;;;;;;5130319;27;20551;-55
2022/05/08 10:45:41;;;;;;;2.73;2.30;;;21.50;1.00;;;;;;5134310;27;20482;-55
2022/05/08 10:48:12;;;;;;;3.23;2.43;;;21.80;1.00;;;;;;5132877;27;20483;-56
2022/05/08 10:50:41;;;;;;;2.87;2.00;;;22.10;1.00;;;;;;5133314;27;20451;-56
2022/05/08 10:53:19;;;;;;;2.53;1.73;;;22.40;1.00;;;;;;5128557;27;20506;-54
2022/05/08 10:55:48;;;;;;;1.40;1.20;;;22.50;1.00;;;;;;5130125;27;20508;-57
2022/05/08 10:58:15;;;;;;;3.70;1.37;;;22.20;1.00;;;;;;5127976;27;20509;-58
2022/05/08 11:00:42;;;;;;;1.67;1.10;;;22.40;1.00;;;;;;5130270;27;20539;-56
2022/05/08 11:03:08;;;;;;;1.67;1.57;;;22.60;1.00;;;;;;5130293;27;20448;-57
2022/05/08 11:05:37;;;;;;;1.37;0.83;;;22.70;1.00;;;;;;5134105;27;20475;-58
2022/05/08 11:08:05;;;;;;;1.73;1.20;;;23.10;1.00;;;;;;5133409;27;20477;-57
2022/05/08 11:10:34;;;;;;;1.90;1.20;;;23.40;1.00;;;;;;5126523;27;20494;-57
2022/05/08 11:13:04;;;;;;;1.50;1.20;;;23.70;1.00;;;;;;5128952;27;20447;-58
2022/05/08 11:15:33;;;;;;;1.47;1.00;;;23.90;1.00;;;;;;5131217;27;20448;-57
2022/05/08 11:18:05;;;;;;;1.40;1.30;;;24.20;1.00;;;;;;5123935;27;20459;-56
2022/05/08 11:20:33;;;;;;;1.13;1.00;;;24.20;1.00;;;;;;5134007;28;21075;-58
2022/05/08 11:23:00;;;;;;;1.10;1.00;;;24.50;1.00;;;;;;5134593;27;20511;-58
2022/05/08 11:25:27;;;;;;;1.53;1.03;;;24.40;1.00;;;;;;5133062;28;20486;-56
2022/05/08 11:27:55;;;;;;;1.43;1.10;;;24.60;1.00;;;;;;5131501;28;20462;-59
2022/05/08 11:30:34;;;;;;;2.40;1.00;;;24.70;1.00;;;;;;5133736;28;20458;-58
2022/05/08 11:36:05;;;;;;;1.60;1.20;;;24.80;1.00;;;;;;5125984;28;20584;-59
2022/05/08 11:38:44;;;;;;;1.97;1.20;;;24.40;1.00;;;;;;5121299;28;20745;-58
2022/05/08 11:41:13;;;;;;;2.20;1.17;;;24.60;1.00;;;;;;5132649;28;20463;-57
2022/05/08 11:43:40;;;;;;;1.90;1.50;;;24.70;1.00;;;;;;5126146;28;21237;-58
2022/05/08 11:46:13;;;;;;;1.40;1.20;;;24.40;1.00;;;;;;5132187;27;20464;-58
2022/05/08 11:48:43;;;;;;;2.67;1.20;;;24.30;1.00;;;;;;5137401;27;20455;-58
2022/05/08 11:51:11;;;;;;;3.57;2.47;;;24.20;1.00;;;;;;5138438;27;20452;-58
2022/05/08 11:53:43;;;;;;;3.10;2.13;;;24.50;1.00;;;;;;5134001;27;20463;-58
2022/05/08 11:56:38;;;;;;;1.60;1.10;;;24.50;1.00;;;;;;5135159;27;20468;-58
2022/05/08 11:59:16;;;;;;;1.47;1.10;;;24.70;1.00;;;;;;5071725;28;21065;-57
2022/05/08 12:01:49;;;;;;;1.37;1.00;;;24.20;1.00;;;;;;5111853;28;20456;-60
2022/05/08 12:04:24;;;;;;;1.53;0.87;;;24.20;1.00;;;;;;5115172;28;20620;-60
2022/05/08 12:06:59;;;;;;;2.00;1.10;;;23.70;1.00;;;;;;5117577;28;21022;-60
2022/05/08 12:09:26;;;;;;;2.80;1.20;;;23.70;1.00;;;;;;5111449;28;20895;-60
2022/05/08 12:11:53;;;;;;;1.40;1.20;;;24.00;1.00;;;;;;5114810;28;20509;-60
2022/05/08 12:14:30;;;;;;;1.40;1.10;;;24.30;1.00;;;;;;5109960;28;20491;-60
2022/05/08 12:17:02;;;;;;;2.47;1.10;;;24.10;1.00;;;;;;5114629;28;20516;-59
2022/05/08 12:19:30;;;;;;;1.80;1.20;;;24.10;1.00;;;;;;5111602;28;21102;-60
2022/05/08 12:21:57;;;;;;;1.70;1.00;;;24.20;1.00;;;;;;5108697;28;20452;-60
2022/05/08 12:24:24;;;;;;;1.20;1.10;;;24.60;1.00;;;;;;5111986;28;20476;-60
2022/05/08 12:26:51;;;;;;;1.20;1.00;;;24.80;1.00;;;;;;5106317;28;20483;-61
2022/05/08 12:29:20;;;;;;;1.40;1.20;;;24.30;1.00;;;;;;5111140;28;20453;-60
2022/05/08 12:31:50;;;;;;;1.40;1.00;;;24.00;1.00;;;;;;5110231;28;20951;-61
2022/05/08 12:34:18;;;;;;;1.23;1.10;;;23.70;1.00;;;;;;5117252;28;20808;-60
2022/05/08 12:36:45;;;;;;;1.30;1.00;;;23.60;1.00;;;;;;5116430;28;20458;-61
2022/05/08 12:39:12;;;;;;;1.93;0.93;;;23.80;1.00;;;;;;5112406;28;20984;-61
2022/05/08 12:41:39;;;;;;;1.60;1.20;;;23.90;1.00;;;;;;5116729;28;20459;-60
2022/05/08 12:44:07;;;;;;;2.07;1.37;;;23.90;1.00;;;;;;5112349;28;20555;-60
2022/05/08 12:46:34;;;;;;;1.40;1.00;;;23.70;1.00;;;;;;5110761;28;20477;-60
2022/05/08 12:49:03;;;;;;;1.30;1.10;;;23.70;1.00;;;;;;5109055;28;20916;-61
2022/05/08 12:51:34;;;;;;;3.00;1.27;;;23.90;1.00;;;;;;5104075;28;20613;-59
2022/05/08 12:54:03;;;;;;;1.40;0.90;;;23.50;1.00;;;;;;5111755;28;20825;-60
2022/05/08 12:56:30;;;;;;;1.23;1.00;;;23.30;1.00;;;;;;5122527;27;20475;-59
2022/05/08 13:01:42;;;;;;;1.40;0.90;;;23.10;1.00;;;;;;5136896;27;20422;-61
2022/05/08 13:04:09;;;;;;;1.10;0.90;;;23.20;1.00;;;;;;5135218;27;20487;-59
2022/05/08 13:06:37;;;;;;;1.13;0.83;;;23.30;1.00;;;;;;5134474;27;20490;-60
2022/05/08 13:09:06;;;;;;;2.50;0.90;;;23.50;1.00;;;;;;5130039;27;20532;-59
2022/05/08 13:11:33;;;;;;;1.00;0.83;;;23.50;1.00;;;;;;5131928;27;20455;-59
2022/05/08 13:14:00;;;;;;;1.07;0.90;;;23.30;1.00;;;;;;5131428;27;20911;-59
2022/05/08 13:16:27;;;;;;;1.20;0.90;;;23.40;1.00;;;;;;5129224;27;20562;-60
2022/05/08 13:18:54;;;;;;;1.00;0.87;;;23.30;1.00;;;;;;5133761;27;20938;-60
2022/05/08 13:21:21;;;;;;;1.67;0.80;;;23.30;1.00;;;;;;5136656;27;20444;-60
2022/05/08 13:23:50;;;;;;;1.00;0.80;;;23.30;1.00;;;;;;5135233;27;20903;-59
2022/05/08 13:26:17;;;;;;;1.23;0.90;;;23.50;1.00;;;;;;5132029;27;20571;-60
2022/05/08 13:28:44;;;;;;;1.50;0.80;;;23.70;1.00;;;;;;5128725;27;20455;-60
2022/05/08 13:31:12;;;;;;;1.77;0.90;;;23.70;1.00;;;;;;5131563;27;20602;-60
2022/05/08 13:33:40;;;;;;;1.07;0.87;;;23.60;1.00;;;;;;5132048;27;20571;-59
2022/05/08 13:36:07;;;;;;;0.90;0.70;;;23.50;1.00;;;;;;5134794;27;20438;-58